Back to Top

Language: 

My Weather Underground Personal Weather Station Historical Data with Graphs...

Delerius Weather Station Historical Data
Daily Summary for January 1, 2017 Units:  English    Metric   Both
« Previous Day
Next Day »
Daily Weekly Monthly Yearly Custom
  High: Low: Average:
Temperature: 48.1 °F 35.1 °F 40.1 °F
Dew Point: 43.3 °F 32.8 °F 37.7 °F
Humidity: 95 % 80 % 91 %
Wind Speed: 9.0 mph 0.0 mph 5.2 mph
Wind Gust: 22.0 mph - -
Wind:- - West
Pressure: 30.33 in 29.95 in -
Precipitation: 0.21 in    
Historical Graphs
 
 
Tabular Data for January 1, 2017
Time Temperature Dew Point Pressure Wind Wind Speed Wind Gust Humidity Rainfall Rate (Hourly) solar Conditions
00:00 48.1 °F 42.2 °F 30.05 in SSW 7.0 mph 22.0 mph 80 % 0.00 in 0 W/m2
00:05 48.1 °F 42.5 °F 30.05 in SW 7.0 mph 22.0 mph 81 % 0.00 in 0 W/m2
00:15 48.0 °F 42.4 °F 30.05 in SW 7.0 mph 7.0 mph 81 % 0.00 in 0 W/m2
00:20 48.1 °F 42.9 °F 30.04 in SW 8.0 mph 8.0 mph 82 % 0.00 in 0 W/m2
00:25 48.1 °F 42.9 °F 30.04 in SW 7.0 mph 8.0 mph 82 % 0.00 in 0 W/m2
00:30 48.0 °F 42.8 °F 30.04 in SW 6.0 mph 6.0 mph 82 % 0.00 in 0 W/m2
00:35 47.9 °F 42.7 °F 30.04 in WSW 7.0 mph 7.0 mph 82 % 0.00 in 0 W/m2
00:45 47.9 °F 43.0 °F 30.03 in WSW 7.0 mph 7.0 mph 83 % 0.00 in 0 W/m2
00:50 47.8 °F 42.9 °F 30.03 in WSW 6.0 mph 6.0 mph 83 % 0.00 in 0 W/m2
00:55 47.7 °F 43.1 °F 30.02 in WSW 4.0 mph 7.0 mph 84 % 0.00 in 0 W/m2
01:00 47.7 °F 43.1 °F 30.02 in SW 5.0 mph 6.0 mph 84 % 0.00 in 0 W/m2
01:05 47.6 °F 43.0 °F 30.02 in WSW 6.0 mph 7.0 mph 84 % 0.00 in 0 W/m2
01:15 47.7 °F 43.1 °F 30.01 in West 8.0 mph 12.0 mph 84 % 0.00 in 0 W/m2
01:20 47.8 °F 43.2 °F 30.01 in West 9.0 mph 9.0 mph 84 % 0.00 in 0 W/m2
01:25 47.8 °F 43.2 °F 30.01 in WSW 9.0 mph 12.0 mph 84 % 0.00 in 0 W/m2
01:30 47.8 °F 43.2 °F 30.00 in WSW 8.0 mph 8.0 mph 84 % 0.00 in 0 W/m2
01:35 47.7 °F 43.1 °F 30.00 in WSW 6.0 mph 12.0 mph 84 % 0.00 in 0 W/m2
01:40 47.6 °F 43.0 °F 30.00 in SW 7.0 mph 7.0 mph 84 % 0.00 in 0 W/m2
01:50 47.4 °F 42.8 °F 30.00 in WSW 6.0 mph 12.0 mph 84 % 0.00 in 0 W/m2
01:55 47.3 °F 43.0 °F 30.00 in West 6.0 mph 12.0 mph 85 % 0.00 in 0 W/m2
02:00 47.2 °F 42.9 °F 29.99 in WSW 6.0 mph 6.0 mph 85 % 0.00 in 0 W/m2
02:05 47.1 °F 42.8 °F 29.99 in WSW 5.0 mph 12.0 mph 85 % 0.00 in 0 W/m2
02:10 47.0 °F 43.0 °F 29.99 in WSW 6.0 mph 6.0 mph 86 % 0.00 in 0 W/m2
02:15 47.0 °F 43.0 °F 29.99 in SW 6.0 mph 12.0 mph 86 % 0.00 in 0 W/m2
02:25 46.8 °F 43.1 °F 29.98 in WSW 6.0 mph 12.0 mph 87 % 0.00 in 0 W/m2
02:30 46.7 °F 43.3 °F 29.98 in WSW 4.0 mph 12.0 mph 88 % 0.00 in 0 W/m2
02:35 46.6 °F 43.2 °F 29.98 in WSW 3.0 mph 12.0 mph 88 % 0.00 in 0 W/m2
02:40 46.5 °F 43.1 °F 29.98 in WSW 5.0 mph 5.0 mph 88 % 0.00 in 0 W/m2
02:45 46.4 °F 43.3 °F 29.98 in WSW 5.0 mph 12.0 mph 89 % 0.00 in 0 W/m2
02:50 46.3 °F 43.2 °F 29.98 in SW 4.0 mph 12.0 mph 89 % 0.00 in 0 W/m2
03:00 46.1 °F 43.0 °F 29.97 in WSW 5.0 mph 5.0 mph 89 % 0.00 in 0 W/m2
03:05 46.1 °F 43.3 °F 29.97 in WSW 4.0 mph 12.0 mph 90 % 0.00 in 0 W/m2
03:15 45.9 °F 43.1 °F 29.97 in SW 4.0 mph 12.0 mph 90 % 0.00 in 0 W/m2
03:20 45.9 °F 43.1 °F 29.97 in SW 2.0 mph 2.0 mph 90 % 0.00 in 0 W/m2
03:25 45.8 °F 43.0 °F 29.96 in SW 1.0 mph 12.0 mph 90 % 0.00 in 0 W/m2
03:30 45.7 °F 43.2 °F 29.96 in SW 1.0 mph 1.0 mph 91 % 0.00 in 0 W/m2
03:35 45.6 °F 43.1 °F 29.96 in Calm   12.0 mph 91 % 0.00 in 0 W/m2
03:45 45.5 °F 43.0 °F 29.95 in Calm   12.0 mph 91 % 0.00 in 0 W/m2
03:50 45.4 °F 43.2 °F 29.95 in SW 1.0 mph 12.0 mph 92 % 0.00 in 0 W/m2
03:55 45.4 °F 43.2 °F 29.95 in SW 1.0 mph 12.0 mph 92 % 0.00 in 0 W/m2
04:00 45.3 °F 43.1 °F 29.95 in SSW 1.0 mph 12.0 mph 92 % 0.00 in 0 W/m2
04:05 45.3 °F 43.1 °F 29.95 in SSW 2.0 mph 12.0 mph 92 % 0.00 in 0 W/m2
04:10 45.3 °F 43.1 °F 29.95 in SSW 1.0 mph 1.0 mph 92 % 0.00 in 0 W/m2
04:15 45.2 °F 43.0 °F 29.95 in Calm   12.0 mph 92 % 0.00 in 0 W/m2
04:20 45.2 °F 43.0 °F 29.95 in Calm   12.0 mph 92 % 0.00 in 0 W/m2
04:30 45.2 °F 43.3 °F 29.95 in North 2.0 mph 12.0 mph 93 % 0.00 in 0 W/m2
04:35 44.8 °F 42.6 °F 29.96 in NNE 6.0 mph 12.0 mph 92 % 0.05 in 0 W/m2
04:40 44.1 °F 41.9 °F 29.96 in NNE 7.0 mph 12.0 mph 92 % 0.13 in 0 W/m2
04:45 43.6 °F 41.4 °F 29.96 in North 8.0 mph 12.0 mph 92 % 0.18 in 0 W/m2
04:50 43.3 °F 41.4 °F 29.96 in North 7.0 mph 7.0 mph 93 % 0.18 in 0 W/m2
04:55 43.2 °F 41.3 °F 29.96 in North 6.0 mph 11.0 mph 93 % 0.10 in 0 W/m2
05:05 42.8 °F 41.2 °F 29.96 in NNE 6.0 mph 12.0 mph 94 % 0.11 in 0 W/m2
05:10 42.7 °F 41.1 °F 29.97 in NE 6.0 mph 12.0 mph 94 % 0.11 in 0 W/m2
05:15 42.7 °F 41.1 °F 29.97 in NNW 7.0 mph 12.0 mph 94 % 0.10 in 0 W/m2
05:20 42.7 °F 41.4 °F 29.97 in North 6.0 mph 6.0 mph 95 % 0.06 in 0 W/m2
05:25 42.6 °F 41.3 °F 29.97 in North 5.0 mph 12.0 mph 95 % 0.06 in 0 W/m2
05:30 42.6 °F 41.3 °F 29.97 in North 6.0 mph 12.0 mph 95 % 0.05 in 0 W/m2
05:40 42.5 °F 41.2 °F 29.97 in North 5.0 mph 5.0 mph 95 % 0.04 in 0 W/m2
05:45 42.3 °F 41.0 °F 29.98 in NNW 6.0 mph 10.0 mph 95 % 0.04 in 0 W/m2
05:50 42.2 °F 40.9 °F 29.98 in NNW 7.0 mph 7.0 mph 95 % 0.04 in 0 W/m2
05:55 42.1 °F 40.8 °F 29.98 in NNW 7.0 mph 12.0 mph 95 % 0.04 in 0 W/m2
06:00 42.0 °F 40.7 °F 29.98 in NNW 6.0 mph 6.0 mph 95 % 0.04 in 0 W/m2
06:10 41.9 °F 40.6 °F 29.98 in NNW 6.0 mph 6.0 mph 95 % 0.04 in 0 W/m2
06:20 41.8 °F 40.5 °F 29.98 in North 8.0 mph 16.0 mph 95 % 0.04 in 0 W/m2
06:25 41.7 °F 40.4 °F 29.99 in NNW 9.0 mph 16.0 mph 95 % 0.00 in 0 W/m2
06:30 41.6 °F 40.3 °F 29.99 in North 8.0 mph 8.0 mph 95 % 0.00 in 0 W/m2
06:35 41.5 °F 40.2 °F 29.99 in North 7.0 mph 12.0 mph 95 % 0.00 in 0 W/m2
06:40 41.4 °F 39.8 °F 29.99 in NW 6.0 mph 6.0 mph 94 % 0.00 in 0 W/m2
06:45 41.2 °F 39.6 °F 29.99 in North 7.0 mph 7.0 mph 94 % 0.00 in 0 W/m2
06:55 40.8 °F 39.2 °F 30.00 in NE 8.0 mph 11.0 mph 94 % 0.00 in 0 W/m2
07:00 40.7 °F 39.1 °F 30.00 in North 7.0 mph 15.0 mph 94 % 0.00 in 0 W/m2
07:05 40.5 °F 38.9 °F 30.00 in NNW 7.0 mph 15.0 mph 94 % 0.00 in 0 W/m2
07:10 40.4 °F 38.8 °F 30.00 in NNW 6.0 mph 12.0 mph 94 % 0.00 in 0 W/m2
07:15 40.4 °F 39.1 °F 30.00 in North 5.0 mph 12.0 mph 95 % 0.00 in 0 W/m2
07:20 40.2 °F 38.9 °F 30.01 in North 6.0 mph 12.0 mph 95 % 0.00 in 0 W/m2
07:30 40.1 °F 38.5 °F 30.01 in North 6.0 mph 12.0 mph 94 % 0.00 in 0 W/m2
07:35 40.0 °F 38.4 °F 30.01 in NNW 5.0 mph 12.0 mph 94 % 0.00 in 0 W/m2
07:40 39.9 °F 38.3 °F 30.01 in North 5.0 mph 5.0 mph 94 % 0.00 in 0 W/m2
07:50 39.9 °F 38.6 °F 30.02 in North 5.0 mph 12.0 mph 95 % 0.00 in 0 W/m2
07:55 39.9 °F 38.6 °F 30.02 in North 4.0 mph 12.0 mph 95 % 0.00 in 0 W/m2
08:00 39.9 °F 38.6 °F 30.02 in NNW 4.0 mph 12.0 mph 95 % 0.00 in 0 W/m2
08:05 39.8 °F 38.5 °F 30.02 in NNW 5.0 mph 12.0 mph 95 % 0.00 in 0 W/m2
08:10 39.8 °F 38.5 °F 30.02 in NNE 6.0 mph 12.0 mph 95 % 0.00 in 0 W/m2
08:15 39.7 °F 38.4 °F 30.02 in NW 4.0 mph 12.0 mph 95 % 0.00 in 0 W/m2
08:20 39.7 °F 38.4 °F 30.02 in North 4.0 mph 12.0 mph 95 % 0.00 in 0 W/m2
08:25 39.7 °F 38.4 °F 30.02 in North 5.0 mph 12.0 mph 95 % 0.00 in 0 W/m2
08:35 39.6 °F 38.3 °F 30.02 in NE 4.0 mph 12.0 mph 95 % 0.00 in 0 W/m2
08:40 39.6 °F 38.3 °F 30.02 in NNW 3.0 mph 12.0 mph 95 % 0.00 in 0 W/m2
08:45 39.6 °F 38.3 °F 30.03 in NNW 4.0 mph 12.0 mph 95 % 0.00 in 0 W/m2
08:50 39.6 °F 38.3 °F 30.03 in North 4.0 mph 4.0 mph 95 % 0.00 in 7 W/m2
08:55 39.6 °F 38.3 °F 30.03 in NNW 4.0 mph 5.0 mph 95 % 0.00 in 9 W/m2
09:00 39.6 °F 38.3 °F 30.04 in NNW 3.0 mph 12.0 mph 95 % 0.00 in 11 W/m2
09:10 39.5 °F 38.2 °F 30.04 in NNW 7.0 mph 12.0 mph 95 % 0.00 in 14 W/m2
09:15 39.6 °F 38.3 °F 30.05 in NNW 5.0 mph 12.0 mph 95 % 0.00 in 14 W/m2
09:20 39.6 °F 38.3 °F 30.05 in NNW 3.0 mph 12.0 mph 95 % 0.00 in 11 W/m2
09:25 39.6 °F 38.3 °F 30.05 in NNW 3.0 mph 12.0 mph 95 % 0.00 in 11 W/m2
09:35 39.5 °F 38.2 °F 30.05 in North 5.0 mph 12.0 mph 95 % 0.00 in 14 W/m2
09:40 39.4 °F 38.1 °F 30.06 in NNW 6.0 mph 6.0 mph 95 % 0.00 in 12 W/m2
09:45 39.4 °F 37.8 °F 30.06 in NNE 5.0 mph 8.0 mph 94 % 0.00 in 12 W/m2
09:50 39.3 °F 37.7 °F 30.06 in North 5.0 mph 12.0 mph 94 % 0.00 in 12 W/m2
09:55 39.3 °F 37.7 °F 30.06 in North 5.0 mph 12.0 mph 94 % 0.00 in 12 W/m2
10:00 39.2 °F 37.6 °F 30.07 in NNE 6.0 mph 6.0 mph 94 % 0.00 in 16 W/m2
10:05 39.2 °F 37.6 °F 30.07 in NNE 7.0 mph 7.0 mph 94 % 0.04 in 18 W/m2
10:15 39.0 °F 37.4 °F 30.07 in NNE 6.0 mph 12.0 mph 94 % 0.04 in 21 W/m2
10:20 39.1 °F 37.5 °F 30.07 in NNW 5.0 mph 12.0 mph 94 % 0.04 in 18 W/m2
10:25 39.1 °F 37.5 °F 30.07 in NW 4.0 mph 12.0 mph 94 % 0.04 in 19 W/m2
10:30 39.2 °F 37.6 °F 30.08 in NNW 5.0 mph 12.0 mph 94 % 0.04 in 16 W/m2
10:35 39.2 °F 37.6 °F 30.08 in NNE 5.0 mph 12.0 mph 94 % 0.04 in 16 W/m2
10:40 39.3 °F 37.7 °F 30.08 in NNE 3.0 mph 3.0 mph 94 % 0.04 in 18 W/m2
10:45 39.3 °F 37.7 °F 30.08 in NNW 3.0 mph 5.0 mph 94 % 0.04 in 18 W/m2
10:50 39.4 °F 37.8 °F 30.08 in North 4.0 mph 12.0 mph 94 % 0.04 in 26 W/m2
11:00 39.4 °F 38.1 °F 30.08 in North 5.0 mph 5.0 mph 95 % 0.00 in 19 W/m2
11:05 39.5 °F 38.2 °F 30.08 in NNW 4.0 mph 12.0 mph 95 % 0.00 in 18 W/m2
11:10 39.5 °F 38.2 °F 30.08 in NNE 5.0 mph 12.0 mph 95 % 0.00 in 23 W/m2
11:15 39.5 °F 38.2 °F 30.08 in NNW 6.0 mph 12.0 mph 95 % 0.00 in 28 W/m2
11:25 39.3 °F 37.7 °F 30.08 in NNE 8.0 mph 12.0 mph 94 % 0.00 in 37 W/m2
11:35 39.3 °F 37.7 °F 30.08 in NNW 6.0 mph 12.0 mph 94 % 0.00 in 30 W/m2
11:40 39.2 °F 37.6 °F 30.08 in NE 7.0 mph 12.0 mph 94 % 0.00 in 23 W/m2
11:45 39.2 °F 37.6 °F 30.08 in North 7.0 mph 12.0 mph 94 % 0.00 in 25 W/m2
11:50 39.2 °F 37.6 °F 30.09 in NNW 6.0 mph 6.0 mph 94 % 0.00 in 26 W/m2
11:55 39.2 °F 37.6 °F 30.09 in NNE 4.0 mph 11.0 mph 94 % 0.00 in 32 W/m2
12:00 39.2 °F 37.6 °F 30.09 in NNW 6.0 mph 12.0 mph 94 % 0.00 in 37 W/m2
12:10 39.2 °F 37.6 °F 30.09 in North 6.0 mph 12.0 mph 94 % 0.00 in 44 W/m2
12:15 39.2 °F 37.6 °F 30.09 in NNE 7.0 mph 12.0 mph 94 % 0.00 in 47 W/m2
12:20 39.2 °F 37.6 °F 30.09 in NNE 6.0 mph 12.0 mph 94 % 0.00 in 32 W/m2
12:30 39.2 °F 37.6 °F 30.09 in NE 6.0 mph 6.0 mph 94 % 0.00 in 37 W/m2
12:35 39.2 °F 37.6 °F 30.09 in North 6.0 mph 12.0 mph 94 % 0.00 in 51 W/m2
12:40 39.2 °F 37.6 °F 30.09 in North 6.0 mph 12.0 mph 94 % 0.00 in 53 W/m2
12:45 39.2 °F 37.6 °F 30.09 in NNE 7.0 mph 12.0 mph 94 % 0.00 in 58 W/m2
12:50 39.2 °F 37.3 °F 30.09 in North 7.0 mph 12.0 mph 93 % 0.00 in 37 W/m2
12:55 39.2 °F 37.3 °F 30.09 in North 7.0 mph 12.0 mph 93 % 0.00 in 56 W/m2
13:00 39.1 °F 37.2 °F 30.10 in North 8.0 mph 8.0 mph 93 % 0.00 in 60 W/m2
13:05 39.1 °F 37.2 °F 30.09 in NNW 8.0 mph 14.0 mph 93 % 0.00 in 65 W/m2
13:15 39.2 °F 37.3 °F 30.10 in NNW 7.0 mph 12.0 mph 93 % 0.00 in 81 W/m2
13:20 39.3 °F 37.4 °F 30.10 in NNE 8.0 mph 12.0 mph 93 % 0.00 in 81 W/m2
13:25 39.3 °F 37.4 °F 30.10 in NNW 7.0 mph 12.0 mph 93 % 0.00 in 77 W/m2
13:30 39.3 °F 37.2 °F 30.10 in NNW 7.0 mph 7.0 mph 92 % 0.00 in 84 W/m2
13:35 39.4 °F 37.3 °F 30.10 in NNW 7.0 mph 12.0 mph 92 % 0.00 in 62 W/m2
13:40 39.3 °F 37.2 °F 30.10 in NNE 8.0 mph 8.0 mph 92 % 0.00 in 62 W/m2
13:50 39.2 °F 36.8 °F 30.11 in North 8.0 mph 12.0 mph 91 % 0.00 in 44 W/m2
13:55 39.2 °F 36.8 °F 30.11 in NW 7.0 mph 12.0 mph 91 % 0.00 in 49 W/m2
14:00 39.2 °F 36.8 °F 30.11 in NNE 7.0 mph 7.0 mph 91 % 0.00 in 40 W/m2
14:05 39.1 °F 36.7 °F 30.11 in North 7.0 mph 12.0 mph 91 % 0.00 in 33 W/m2
14:10 39.2 °F 36.8 °F 30.11 in NE 7.0 mph 12.0 mph 91 % 0.00 in 44 W/m2
14:15 39.0 °F 36.6 °F 30.11 in NNW 8.0 mph 12.0 mph 91 % 0.00 in 42 W/m2
14:25 39.0 °F 36.6 °F 30.11 in NW 5.0 mph 12.0 mph 91 % 0.00 in 46 W/m2
14:30 38.9 °F 36.2 °F 30.12 in North 7.0 mph 14.0 mph 90 % 0.00 in 46 W/m2
14:35 38.9 °F 36.2 °F 30.12 in NNW 9.0 mph 14.0 mph 90 % 0.00 in 49 W/m2
14:40 38.9 °F 35.9 °F 30.12 in NNW 9.0 mph 12.0 mph 89 % 0.00 in 60 W/m2
14:45 38.9 °F 35.9 °F 30.12 in North 7.0 mph 12.0 mph 89 % 0.00 in 40 W/m2
14:50 38.9 °F 35.9 °F 30.12 in North 8.0 mph 12.0 mph 89 % 0.00 in 46 W/m2
15:00 38.8 °F 35.6 °F 30.13 in NNW 7.0 mph 12.0 mph 88 % 0.00 in 39 W/m2
15:05 38.8 °F 35.6 °F 30.13 in NNW 7.0 mph 12.0 mph 88 % 0.00 in 30 W/m2
15:10 38.8 °F 35.6 °F 30.13 in NNW 6.0 mph 6.0 mph 88 % 0.00 in 23 W/m2
15:15 38.8 °F 35.6 °F 30.13 in NW 6.0 mph 7.0 mph 88 % 0.00 in 23 W/m2
15:20 38.7 °F 35.5 °F 30.13 in North 5.0 mph 12.0 mph 88 % 0.00 in 21 W/m2
15:25 38.7 °F 35.5 °F 30.13 in NNW 4.0 mph 12.0 mph 88 % 0.00 in 26 W/m2
15:30 38.7 °F 35.5 °F 30.13 in North 5.0 mph 5.0 mph 88 % 0.00 in 16 W/m2
15:40 38.5 °F 35.3 °F 30.14 in NW 6.0 mph 6.0 mph 88 % 0.00 in 12 W/m2
15:45 38.4 °F 35.2 °F 30.14 in NW 5.0 mph 12.0 mph 88 % 0.00 in 11 W/m2
15:50 38.2 °F 35.0 °F 30.14 in NNW 4.0 mph 12.0 mph 88 % 0.00 in 9 W/m2
15:55 38.1 °F 34.9 °F 30.14 in NNW 5.0 mph 12.0 mph 88 % 0.00 in 5 W/m2
16:00 38.0 °F 34.8 °F 30.15 in NNW 6.0 mph 6.0 mph 88 % 0.00 in 5 W/m2
16:10 37.8 °F 34.3 °F 30.15 in NNW 4.0 mph 12.0 mph 87 % 0.00 in 0 W/m2
16:15 37.7 °F 34.5 °F 30.15 in NNW 4.0 mph 12.0 mph 88 % 0.00 in 0 W/m2
16:20 37.5 °F 34.3 °F 30.15 in NW 3.0 mph 3.0 mph 88 % 0.00 in 0 W/m2
16:25 37.3 °F 34.1 °F 30.15 in NNW 2.0 mph 12.0 mph 88 % 0.00 in 0 W/m2
16:35 37.1 °F 34.2 °F 30.16 in NNW 3.0 mph 5.0 mph 89 % 0.00 in 0 W/m2
16:40 37.1 °F 34.2 °F 30.16 in WNW 2.0 mph 12.0 mph 89 % 0.00 in 0 W/m2
16:45 37.1 °F 34.2 °F 30.17 in NW 3.0 mph 12.0 mph 89 % 0.00 in 0 W/m2
16:50 37.1 °F 34.2 °F 30.17 in NW 3.0 mph 3.0 mph 89 % 0.00 in 0 W/m2
16:55 37.0 °F 34.1 °F 30.17 in NW 3.0 mph 12.0 mph 89 % 0.00 in 0 W/m2
17:00 36.9 °F 34.0 °F 30.17 in NW 2.0 mph 12.0 mph 89 % 0.00 in 0 W/m2
17:05 36.7 °F 33.8 °F 30.17 in NW 2.0 mph 12.0 mph 89 % 0.00 in 0 W/m2
17:10 36.5 °F 33.6 °F 30.17 in NNW 2.0 mph 12.0 mph 89 % 0.00 in 0 W/m2
17:20 36.3 °F 33.4 °F 30.18 in NNW 3.0 mph 3.0 mph 89 % 0.00 in 0 W/m2
17:25 36.1 °F 33.2 °F 30.18 in NW 3.0 mph 12.0 mph 89 % 0.00 in 0 W/m2
17:30 36.1 °F 33.2 °F 30.18 in NW 2.0 mph 12.0 mph 89 % 0.00 in 0 W/m2
17:35 36.0 °F 33.1 °F 30.18 in NW 3.0 mph 12.0 mph 89 % 0.00 in 0 W/m2
17:45 35.9 °F 33.3 °F 30.19 in NW 4.0 mph 12.0 mph 90 % 0.00 in 0 W/m2
17:55 35.7 °F 32.8 °F 30.19 in NNW 4.0 mph 12.0 mph 89 % 0.00 in 0 W/m2
18:00 35.7 °F 33.1 °F 30.20 in NNW 5.0 mph 12.0 mph 90 % 0.00 in 0 W/m2
18:05 35.8 °F 33.2 °F 30.20 in NNW 5.0 mph 12.0 mph 90 % 0.00 in 0 W/m2
18:10 36.0 °F 33.4 °F 30.20 in NNW 4.0 mph 4.0 mph 90 % 0.00 in 0 W/m2
18:20 36.6 °F 33.9 °F 30.21 in NNW 6.0 mph 12.0 mph 90 % 0.00 in 0 W/m2
18:30 37.0 °F 34.1 °F 30.21 in NNW 6.0 mph 12.0 mph 89 % 0.00 in 0 W/m2
18:35 37.1 °F 34.2 °F 30.21 in NNW 5.0 mph 12.0 mph 89 % 0.00 in 0 W/m2
18:40 37.2 °F 34.3 °F 30.21 in NNW 4.0 mph 12.0 mph 89 % 0.00 in 0 W/m2
18:45 37.4 °F 34.7 °F 30.21 in North 6.0 mph 12.0 mph 90 % 0.00 in 0 W/m2
18:50 37.5 °F 34.8 °F 30.22 in NNW 7.0 mph 7.0 mph 90 % 0.00 in 0 W/m2
18:55 37.5 °F 34.8 °F 30.22 in NW 7.0 mph 9.0 mph 90 % 0.00 in 0 W/m2
19:05 37.3 °F 34.6 °F 30.22 in NNW 7.0 mph 12.0 mph 90 % 0.00 in 0 W/m2
19:10 37.2 °F 34.5 °F 30.23 in NW 6.0 mph 12.0 mph 90 % 0.00 in 0 W/m2
19:15 37.0 °F 34.3 °F 30.23 in NNW 6.0 mph 12.0 mph 90 % 0.00 in 0 W/m2
19:20 36.9 °F 34.5 °F 30.23 in NNW 5.0 mph 5.0 mph 91 % 0.00 in 0 W/m2
19:25 36.8 °F 34.4 °F 30.23 in NNW 4.0 mph 12.0 mph 91 % 0.00 in 0 W/m2
19:30 36.6 °F 34.2 °F 30.23 in NNW 4.0 mph 12.0 mph 91 % 0.00 in 0 W/m2
19:40 36.5 °F 34.1 °F 30.23 in NW 5.0 mph 12.0 mph 91 % 0.00 in 0 W/m2
19:45 36.5 °F 34.1 °F 30.24 in North 5.0 mph 12.0 mph 91 % 0.00 in 0 W/m2
19:50 36.3 °F 33.9 °F 30.24 in NNW 3.0 mph 3.0 mph 91 % 0.00 in 0 W/m2
19:55 36.2 °F 34.1 °F 30.24 in NNW 3.0 mph 5.0 mph 92 % 0.00 in 0 W/m2
20:00 36.1 °F 34.0 °F 30.24 in NW 5.0 mph 5.0 mph 92 % 0.00 in 0 W/m2
20:05 36.0 °F 33.9 °F 30.24 in NNW 4.0 mph 12.0 mph 92 % 0.00 in 0 W/m2
20:15 35.9 °F 33.8 °F 30.25 in NW 4.0 mph 12.0 mph 92 % 0.00 in 0 W/m2
20:20 35.9 °F 34.1 °F 30.25 in NNW 4.0 mph 12.0 mph 93 % 0.00 in 0 W/m2
20:25 36.1 °F 34.3 °F 30.25 in NNW 5.0 mph 12.0 mph 93 % 0.00 in 0 W/m2
20:30 36.1 °F 34.0 °F 30.25 in NNW 6.0 mph 6.0 mph 92 % 0.00 in 0 W/m2
20:40 36.0 °F 33.9 °F 30.25 in NNW 4.0 mph 12.0 mph 92 % 0.00 in 0 W/m2
20:45 36.0 °F 33.9 °F 30.25 in NNW 5.0 mph 12.0 mph 92 % 0.00 in 0 W/m2
20:50 35.9 °F 33.8 °F 30.26 in NNW 4.0 mph 12.0 mph 92 % 0.00 in 0 W/m2
20:55 35.8 °F 33.7 °F 30.26 in NNW 4.0 mph 12.0 mph 92 % 0.00 in 0 W/m2
21:00 35.8 °F 33.7 °F 30.27 in NW 5.0 mph 12.0 mph 92 % 0.00 in 0 W/m2
21:05 35.8 °F 33.7 °F 30.27 in NNW 5.0 mph 12.0 mph 92 % 0.00 in 0 W/m2
21:15 35.6 °F 33.5 °F 30.27 in NW 5.0 mph 12.0 mph 92 % 0.00 in 0 W/m2
21:20 35.5 °F 33.4 °F 30.27 in WNW 5.0 mph 5.0 mph 92 % 0.00 in 0 W/m2
21:25 35.4 °F 33.3 °F 30.27 in NW 4.0 mph 12.0 mph 92 % 0.00 in 0 W/m2
21:30 35.2 °F 33.1 °F 30.28 in NW 4.0 mph 12.0 mph 92 % 0.00 in 0 W/m2
21:35 35.1 °F 33.0 °F 30.28 in NNW 4.0 mph 12.0 mph 92 % 0.00 in 0 W/m2
21:40 35.1 °F 33.3 °F 30.29 in NW 4.0 mph 12.0 mph 93 % 0.00 in 0 W/m2
21:50 35.4 °F 33.6 °F 30.29 in NNW 5.0 mph 5.0 mph 93 % 0.00 in 0 W/m2
21:55 35.5 °F 33.7 °F 30.29 in NW 4.0 mph 12.0 mph 93 % 0.00 in 0 W/m2
22:00 35.5 °F 33.7 °F 30.29 in NW 3.0 mph 12.0 mph 93 % 0.00 in 0 W/m2
22:05 35.4 °F 33.6 °F 30.30 in NW 4.0 mph 12.0 mph 93 % 0.00 in 0 W/m2
22:10 35.5 °F 33.7 °F 30.30 in NW 5.0 mph 5.0 mph 93 % 0.00 in 0 W/m2
22:20 36.0 °F 34.4 °F 30.30 in NNW 6.0 mph 6.0 mph 94 % 0.00 in 0 W/m2
22:25 36.1 °F 34.5 °F 30.30 in North 5.0 mph 7.0 mph 94 % 0.00 in 0 W/m2
22:30 36.2 °F 34.4 °F 30.30 in NNW 5.0 mph 12.0 mph 93 % 0.00 in 0 W/m2
22:35 36.3 °F 34.5 °F 30.30 in NNW 5.0 mph 12.0 mph 93 % 0.00 in 0 W/m2
22:40 36.3 °F 34.5 °F 30.30 in North 5.0 mph 5.0 mph 93 % 0.00 in 0 W/m2
22:50 36.4 °F 34.6 °F 30.31 in NW 7.0 mph 7.0 mph 93 % 0.00 in 0 W/m2
22:55 36.4 °F 34.6 °F 30.31 in NNW 7.0 mph 12.0 mph 93 % 0.00 in 0 W/m2
23:00 36.4 °F 34.6 °F 30.31 in NW 6.0 mph 6.0 mph 93 % 0.00 in 0 W/m2
23:05 36.4 °F 34.6 °F 30.31 in North 5.0 mph 8.0 mph 93 % 0.00 in 0 W/m2
23:10 36.5 °F 34.7 °F 30.32 in NNW 6.0 mph 12.0 mph 93 % 0.00 in 0 W/m2
23:15 36.6 °F 34.8 °F 30.32 in NNW 7.0 mph 12.0 mph 93 % 0.00 in 0 W/m2
23:25 36.6 °F 34.8 °F 30.32 in NNW 5.0 mph 12.0 mph 93 % 0.00 in 0 W/m2
23:30 36.7 °F 34.9 °F 30.32 in NNW 6.0 mph 12.0 mph 93 % 0.00 in 0 W/m2
23:35 36.7 °F 34.9 °F 30.32 in NW 6.0 mph 12.0 mph 93 % 0.00 in 0 W/m2
23:40 36.8 °F 35.0 °F 30.32 in NNW 6.0 mph 12.0 mph 93 % 0.00 in 0 W/m2
23:45 36.9 °F 35.1 °F 30.33 in NW 6.0 mph 12.0 mph 93 % 0.00 in 0 W/m2
23:55 37.0 °F 35.2 °F 30.33 in NNW 5.0 mph 12.0 mph 93 % 0.00 in 0 W/m2
Delerius-Weather
Compliments of Weather Underground - 2 mb

Data updates at regular intervals.